Time;durP1;ratioP1;P1;durP2;ratioP2;P2;SDS_P1;SDS_P2;PMS_P1;PMS_P2;Temp;Humidity;BMP_temperature;BMP_pressure;BME280_temperature;BME280_humidity;BME280_pressure;Samples;Min_cycle;Max_cycle;Signal;HPM_P1;HPM_P2
2022/10/24 00:00:15;;;;;;;9.73;6.00;;;;;;;12.31;100.00;99815.12;1647929;84;21098;-73
2022/10/24 00:02:42;;;;;;;7.08;6.37;;;;;;;12.33;100.00;99811.63;1735400;81;21090;-77
2022/10/24 00:05:12;;;;;;;10.13;5.35;;;;;;;12.34;100.00;99810.55;1701524;83;21769;-75
2022/10/24 00:07:40;;;;;;;5.80;5.10;;;;;;;12.33;100.00;99803.00;1753788;80;21047;-76
2022/10/24 00:10:10;;;;;;;6.67;5.85;;;;;;;12.32;100.00;99820.27;1756633;80;21034;-76
2022/10/24 00:12:37;;;;;;;6.55;5.95;;;;;;;12.30;100.00;99818.89;1720391;81;21039;-75
2022/10/24 00:15:06;;;;;;;5.85;4.95;;;;;;;12.31;100.00;99828.62;1728939;81;21063;-73
2022/10/24 00:17:34;;;;;;;6.15;5.53;;;;;;;12.31;100.00;99818.64;1736462;80;20999;-74
2022/10/24 00:20:01;;;;;;;8.15;5.08;;;;;;;12.33;100.00;99827.27;1725843;81;20987;-76
2022/10/24 00:22:28;;;;;;;10.05;6.00;;;;;;;12.33;100.00;99831.31;1764506;81;20940;-74
2022/10/24 00:24:56;;;;;;;6.67;5.22;;;;;;;12.34;100.00;99832.95;1763229;81;20964;-76
2022/10/24 00:27:23;;;;;;;6.78;5.10;;;;;;;12.33;100.00;99827.80;1751504;80;21293;-75
2022/10/24 00:29:49;;;;;;;6.55;4.87;;;;;;;12.28;100.00;99827.80;1750409;81;21056;-73
2022/10/24 00:32:17;;;;;;;7.53;5.78;;;;;;;12.22;100.00;99826.40;1769792;81;21046;-76
2022/10/24 00:34:46;;;;;;;5.80;5.20;;;;;;;12.20;100.00;99825.02;1753082;80;21608;-74
2022/10/24 00:37:14;;;;;;;8.33;4.92;;;;;;;12.20;100.00;99820.97;1737294;82;21019;-77
2022/10/24 00:39:41;;;;;;;6.53;5.35;;;;;;;12.20;100.00;99829.88;1701908;84;21019;-75
2022/10/24 00:42:07;;;;;;;5.53;4.95;;;;;;;12.20;100.00;99832.57;1683137;82;21120;-76
2022/10/24 00:44:39;;;;;;;6.40;5.08;;;;;;;12.22;100.00;99837.19;1674945;84;20949;-75
2022/10/24 00:47:10;;;;;;;5.43;4.93;;;;;;;12.20;100.00;99831.22;1689311;84;21561;-74
2022/10/24 00:50:04;;;;;;;7.25;5.30;;;;;;;12.18;100.00;99825.27;1690828;82;20987;-75
2022/10/24 00:52:34;;;;;;;4.83;4.42;;;;;;;12.14;100.00;99824.16;1714629;81;21010;-74
2022/10/24 00:55:01;;;;;;;5.92;5.03;;;;;;;12.15;100.00;99816.88;1682203;83;21247;-74
2022/10/24 00:57:36;;;;;;;5.00;4.60;;;;;;;12.15;100.00;99818.23;1694475;82;26000;-74
2022/10/24 01:00:08;;;;;;;7.42;5.33;;;;;;;12.15;100.00;99817.70;1650696;86;21094;-77
2022/10/24 01:02:35;;;;;;;8.48;5.58;;;;;;;12.19;100.00;99822.85;1667816;84;21579;-75
2022/10/24 01:05:03;;;;;;;6.33;5.78;;;;;;;12.20;100.00;99831.76;1680273;82;21117;-77
2022/10/24 01:07:50;;;;;;;5.28;4.78;;;;;;;12.20;100.00;99829.06;1663358;82;21034;-74
2022/10/24 01:10:59;;;;;;;7.53;6.03;;;;;;;12.19;100.00;99825.55;1663869;84;21634;-75
2022/10/24 01:13:52;;;;;;;5.72;4.87;;;;;;;12.18;100.00;99830.66;1669266;85;21122;-74
2022/10/24 01:16:39;;;;;;;5.70;5.17;;;;;;;12.18;100.00;99832.00;1700943;84;21065;-75
2022/10/24 01:19:28;;;;;;;6.28;4.72;;;;;;;12.19;100.00;99827.42;1701505;82;21058;-73
2022/10/24 01:22:04;;;;;;;6.37;5.78;;;;;;;12.20;100.00;99827.18;1703711;82;21789;-75
2022/10/24 01:24:43;;;;;;;6.92;4.78;;;;;;;12.19;100.00;99838.21;1707011;83;21018;-73
2022/10/24 01:27:30;;;;;;;7.08;5.28;;;;;;;12.20;100.00;99834.45;1700033;83;21574;-74
2022/10/24 01:30:10;;;;;;;7.42;4.12;;;;;;;12.20;100.00;99827.71;1695139;83;21042;-72
2022/10/24 01:32:51;;;;;;;9.25;5.22;;;;;;;12.17;100.00;99834.45;1709902;83;21598;-76
2022/10/24 01:35:35;;;;;;;4.62;4.08;;;;;;;12.15;100.00;99831.18;1687077;83;21100;-76
2022/10/24 01:38:10;;;;;;;5.45;4.95;;;;;;;12.14;100.00;99832.77;1716540;83;21074;-78
2022/10/24 01:40:53;;;;;;;4.35;4.05;;;;;;;12.14;100.00;99831.42;1698720;84;21009;-77
2022/10/24 01:43:29;;;;;;;;;;;;;;;12.14;100.00;99832.24;1707221;83;21591;-78
2022/10/24 01:46:03;;;;;;;4.92;4.53;;;;;;;12.15;100.00;99837.10;1701229;82;20165;-78
2022/10/24 01:48:35;;;;;;;5.70;4.50;;;;;;;12.16;100.00;99840.09;1702983;82;21288;-71
2022/10/24 01:51:03;;;;;;;6.70;4.92;;;;;;;12.16;100.00;99844.12;1724489;82;21545;-90
2022/10/24 01:53:32;;;;;;;5.62;4.72;;;;;;;12.19;100.00;99841.73;1700170;83;21020;-80
2022/10/24 01:55:59;;;;;;;5.25;4.42;;;;;;;12.23;100.00;99840.67;1704491;83;21093;-80
2022/10/24 01:58:29;;;;;;;6.87;5.20;;;;;;;12.23;100.00;99843.37;1645608;84;22348;-85
2022/10/24 02:01:00;;;;;;;10.13;6.33;;;;;;;12.22;100.00;99839.88;1690108;84;21149;-82
2022/10/24 02:03:38;;;;;;;6.30;5.08;;;;;;;12.21;100.00;99838.25;1633250;87;21082;-81
2022/10/24 02:06:11;;;;;;;8.10;5.45;;;;;;;12.22;100.00;99847.16;1667749;84;21062;-74
2022/10/24 02:08:42;;;;;;;5.33;4.83;;;;;;;12.20;100.00;99835.27;1668822;82;21080;-80
2022/10/24 02:11:09;;;;;;;5.67;5.05;;;;;;;12.22;100.00;99840.42;1718350;83;21068;-78
2022/10/24 02:13:46;;;;;;;4.95;4.55;;;;;;;12.24;100.00;99834.21;1696459;82;20999;-74
2022/10/24 02:16:16;;;;;;;7.42;5.50;;;;;;;12.23;100.00;99846.06;1691495;83;20963;-77
2022/10/24 02:18:46;;;;;;;6.05;5.05;;;;;;;12.19;100.00;99837.68;1695384;83;21170;-73
2022/10/24 02:21:30;;;;;;;7.55;5.47;;;;;;;12.16;100.00;99841.44;1659899;84;21133;-73
2022/10/24 02:24:15;;;;;;;5.95;5.17;;;;;;;12.13;100.00;99834.66;1677543;83;21065;-73
2022/10/24 02:27:03;;;;;;;6.08;5.47;;;;;;;12.13;100.00;99836.56;1674131;84;21885;-73
2022/10/24 02:30:00;;;;;;;6.45;5.22;;;;;;;12.12;100.00;99840.33;1672877;82;21011;-74
2022/10/24 02:32:33;;;;;;;7.47;5.50;;;;;;;12.12;100.00;99839.80;1621806;88;22319;-74
2022/10/24 02:34:59;;;;;;;19.98;6.45;;;;;;;12.09;100.00;99840.28;1679748;84;21041;-75
2022/10/24 02:37:26;;;;;;;7.22;6.03;;;;;;;12.10;100.00;99843.27;1666908;84;21098;-75
2022/10/24 02:39:53;;;;;;;6.45;5.45;;;;;;;12.10;100.00;99845.96;1706838;82;21243;-75
2022/10/24 02:42:19;;;;;;;8.10;6.17;;;;;;;12.08;100.00;99851.34;1717086;83;21118;-75
2022/10/24 02:44:47;;;;;;;6.42;5.55;;;;;;;12.05;100.00;99851.30;1662953;84;21087;-75
2022/10/24 02:47:13;;;;;;;6.72;5.20;;;;;;;12.04;100.00;99857.76;1694135;83;21122;-72
2022/10/24 02:49:40;;;;;;;7.75;6.05;;;;;;;12.04;100.00;99863.15;1701711;82;20994;-77
2022/10/24 02:52:06;;;;;;;6.95;6.05;;;;;;;12.02;100.00;99863.95;1696654;83;21128;-73
2022/10/24 02:54:33;;;;;;;9.33;5.70;;;;;;;12.01;100.00;99859.62;1693017;84;21067;-81
2022/10/24 02:57:01;;;;;;;8.13;4.90;;;;;;;12.04;100.00;99862.33;1663258;84;20967;-75
2022/10/24 02:59:28;;;;;;;8.30;5.95;;;;;;;12.03;100.00;99860.73;1700959;82;21048;-86
2022/10/24 03:01:54;;;;;;;10.08;6.12;;;;;;;12.02;100.00;99864.48;1715183;83;21071;-69
2022/10/24 03:04:21;;;;;;;9.18;6.12;;;;;;;12.01;100.00;99863.67;1696190;84;21135;-69
2022/10/24 03:06:48;;;;;;;8.78;6.72;;;;;;;12.02;100.00;99861.79;1664218;84;21069;-70
2022/10/24 03:09:15;;;;;;;12.98;6.85;;;;;;;12.00;100.00;99851.78;1697896;82;20944;-69
2022/10/24 03:11:41;;;;;;;7.62;6.83;;;;;;;11.99;100.00;99863.09;1716412;82;21039;-71
2022/10/24 03:14:09;;;;;;;7.95;5.58;;;;;;;11.98;100.00;99872.28;1696075;84;21515;-74
2022/10/24 03:16:37;;;;;;;6.92;5.75;;;;;;;11.95;100.00;99872.77;1672262;85;21179;-74
2022/10/24 03:19:03;;;;;;;8.88;6.65;;;;;;;11.91;100.00;99878.39;1665179;84;21014;-73
2022/10/24 03:21:30;;;;;;;9.00;6.45;;;;;;;11.90;100.00;99881.33;1664767;85;21060;-72
2022/10/24 03:23:56;;;;;;;7.60;6.65;;;;;;;11.91;100.00;99881.62;1672623;85;22474;-72
2022/10/24 03:26:24;;;;;;;10.70;6.72;;;;;;;11.95;100.00;99878.16;1680902;84;21036;-70
2022/10/24 03:28:51;;;;;;;8.88;6.50;;;;;;;11.98;100.00;99881.72;1670053;84;21134;-72
2022/10/24 03:31:18;;;;;;;7.37;6.17;;;;;;;12.00;100.00;99882.25;1672770;85;21047;-71
2022/10/24 03:33:46;;;;;;;9.30;6.90;;;;;;;12.07;100.00;99885.58;1697386;83;21599;-71
2022/10/24 03:36:13;;;;;;;12.00;7.08;;;;;;;12.07;100.00;99883.41;1710302;83;21689;-79
2022/10/24 03:38:39;;;;;;;16.07;7.17;;;;;;;12.04;100.00;99872.58;1703318;83;21058;-75
2022/10/24 03:41:06;;;;;;;9.55;6.95;;;;;;;12.03;100.00;99878.25;1719033;82;21153;-75
2022/10/24 03:43:32;;;;;;;8.85;6.80;;;;;;;12.03;100.00;99885.81;1721061;82;20948;-77
2022/10/24 03:46:01;;;;;;;8.15;7.35;;;;;;;12.04;100.00;99878.51;1709646;83;21020;-77
2022/10/24 03:48:27;;;;;;;8.30;5.92;;;;;;;12.05;100.00;99881.48;1696336;84;21030;-78
2022/10/24 03:50:54;;;;;;;12.33;7.62;;;;;;;12.05;100.00;99880.14;1716667;82;21083;-77
2022/10/24 03:53:22;;;;;;;9.25;7.97;;;;;;;12.06;100.00;99880.43;1720771;83;20968;-76
2022/10/24 03:55:49;;;;;;;7.35;6.53;;;;;;;12.05;100.00;99876.09;1712895;83;20970;-76
2022/10/24 03:58:15;;;;;;;6.90;6.05;;;;;;;12.06;100.00;99883.12;1663220;84;21051;-77
2022/10/24 04:00:45;;;;;;;7.65;6.87;;;;;;;12.05;100.00;99880.14;1711125;82;21071;-77
2022/10/24 04:03:11;;;;;;;8.00;7.20;;;;;;;12.02;100.00;99880.13;1696114;84;20995;-75
2022/10/24 04:05:38;;;;;;;16.12;11.65;;;;;;;12.01;100.00;99880.38;1696143;82;22362;-76
2022/10/24 04:08:06;;;;;;;8.05;7.25;;;;;;;12.02;100.00;99878.78;1696398;83;21043;-77
2022/10/24 04:10:32;;;;;;;14.95;7.97;;;;;;;12.02;100.00;99876.62;1697867;82;21064;-78
2022/10/24 04:12:59;;;;;;;9.28;7.55;;;;;;;12.01;100.00;99887.93;1715382;82;21058;-77
2022/10/24 04:15:29;;;;;;;8.18;7.17;;;;;;;12.04;100.00;99887.41;1720995;83;20982;-78
2022/10/24 04:17:57;;;;;;;14.63;8.10;;;;;;;12.03;100.00;99888.50;1691881;83;21288;-76
2022/10/24 04:20:23;;;;;;;8.60;7.40;;;;;;;12.02;100.00;99884.70;1711235;82;20951;-76
2022/10/24 04:22:50;;;;;;;12.78;8.28;;;;;;;11.99;100.00;99895.45;1703754;82;21050;-73
2022/10/24 04:25:17;;;;;;;12.20;7.25;;;;;;;11.97;100.00;99893.55;1696034;83;21022;-74
2022/10/24 04:27:45;;;;;;;12.73;7.90;;;;;;;11.95;100.00;99892.98;1696270;83;20969;-75
2022/10/24 04:30:12;;;;;;;10.63;7.83;;;;;;;11.96;100.00;99894.62;1696431;82;21822;-76
2022/10/24 04:32:39;;;;;;;7.22;6.58;;;;;;;11.97;100.00;99894.91;1696069;84;20987;-75
2022/10/24 04:35:07;;;;;;;10.53;7.08;;;;;;;11.99;100.00;99894.66;1696176;84;21019;-75
2022/10/24 04:37:34;;;;;;;10.20;8.08;;;;;;;12.01;100.00;99897.37;1696327;83;21578;-76
2022/10/24 04:40:00;;;;;;;12.40;7.55;;;;;;;12.03;100.00;99903.33;1701940;82;21106;-77
2022/10/24 04:42:27;;;;;;;13.10;7.53;;;;;;;12.00;100.00;99903.00;1707282;83;21978;-75
2022/10/24 04:44:54;;;;;;;8.38;7.37;;;;;;;11.94;100.00;99910.22;1683832;85;21561;-74
2022/10/24 04:47:21;;;;;;;8.65;7.80;;;;;;;11.90;100.00;99914.48;1696086;84;21009;-73
2022/10/24 04:49:48;;;;;;;11.43;7.28;;;;;;;11.88;100.00;99918.52;1681147;84;21065;-74
2022/10/24 04:52:14;;;;;;;13.62;8.70;;;;;;;11.88;100.00;99908.55;1634255;85;21115;-79
2022/10/24 04:54:42;;;;;;;11.63;7.95;;;;;;;11.89;100.00;99924.20;1696392;84;21006;-76
2022/10/24 04:57:08;;;;;;;13.53;9.08;;;;;;;11.88;100.00;99927.42;1696284;84;21041;-74
2022/10/24 04:59:37;;;;;;;9.40;7.35;;;;;;;11.90;100.00;99927.15;1696095;84;21449;-78
2022/10/24 05:02:03;;;;;;;20.40;9.10;;;;;;;11.89;100.00;99934.45;1666510;84;20943;-75
2022/10/24 05:04:30;;;;;;;8.43;7.28;;;;;;;11.91;100.00;99932.83;1694427;83;21056;-78
2022/10/24 05:06:57;;;;;;;9.28;7.42;;;;;;;11.91;100.00;99932.83;1692751;84;21062;-75
2022/10/24 05:09:24;;;;;;;8.73;7.83;;;;;;;11.89;100.00;99929.05;1703604;83;21074;-76
2022/10/24 05:11:52;;;;;;;9.55;6.58;;;;;;;11.87;100.00;99931.17;1700156;82;21076;-77
2022/10/24 05:14:19;;;;;;;9.33;7.25;;;;;;;11.85;100.00;99937.87;1674516;85;21075;-75
2022/10/24 05:16:48;;;;;;;9.00;7.45;;;;;;;11.82;100.00;99944.59;1664923;86;21057;-78
2022/10/24 05:19:16;;;;;;;11.48;7.62;;;;;;;11.83;100.00;99944.06;1636475;87;21168;-78
2022/10/24 05:21:43;;;;;;;10.18;7.70;;;;;;;11.84;100.00;99950.55;1682554;85;21074;-75
2022/10/24 05:24:10;;;;;;;9.43;8.25;;;;;;;11.87;100.00;99941.14;1720698;83;21003;-72
2022/10/24 05:26:37;;;;;;;12.07;8.98;;;;;;;11.91;100.00;99953.04;1671412;84;21070;-75
2022/10/24 05:29:03;;;;;;;16.23;10.08;;;;;;;11.94;100.00;99956.59;1696386;84;21070;-75
2022/10/24 05:31:30;;;;;;;12.05;8.38;;;;;;;11.96;100.00;99959.31;1685630;83;21124;-73
2022/10/24 05:33:57;;;;;;;13.35;9.00;;;;;;;11.96;100.00;99966.05;1696705;82;21595;-73
2022/10/24 05:36:24;;;;;;;16.77;9.68;;;;;;;11.96;100.00;99964.70;1692700;84;21528;-77
2022/10/24 05:38:50;;;;;;;13.18;9.18;;;;;;;11.96;100.00;99976.02;1692865;84;21063;-74
2022/10/24 05:41:17;;;;;;;12.43;7.58;;;;;;;11.98;100.00;99969.85;1697747;82;21030;-77
2022/10/24 05:43:43;;;;;;;8.93;7.90;;;;;;;11.99;100.00;99975.53;1688475;83;21149;-77
2022/10/24 05:46:11;;;;;;;16.05;9.50;;;;;;;12.03;100.00;99972.61;1719440;82;20916;-77
2022/10/24 05:48:38;;;;;;;12.25;8.10;;;;;;;12.06;100.00;99972.91;1698571;83;21047;-75
2022/10/24 05:51:05;;;;;;;9.25;8.15;;;;;;;12.09;100.00;99971.05;1708059;82;20936;-78
2022/10/24 05:53:31;;;;;;;10.25;8.23;;;;;;;12.12;100.00;99972.44;1692436;83;21781;-80
2022/10/24 05:55:57;;;;;;;11.22;9.05;;;;;;;12.13;100.00;99969.47;1707140;83;21094;-77
2022/10/24 05:58:26;;;;;;;19.48;8.25;;;;;;;12.12;100.00;99978.65;1707619;83;21067;-78
2022/10/24 06:00:53;;;;;;;12.30;8.63;;;;;;;12.12;100.00;99988.09;1719214;82;21019;-77
2022/10/24 06:03:19;;;;;;;13.25;8.80;;;;;;;12.12;100.00;99978.65;1721366;83;22188;-76
2022/10/24 06:05:48;;;;;;;10.72;8.33;;;;;;;12.14;100.00;99990.51;1721146;83;21079;-79
2022/10/24 06:08:14;;;;;;;10.75;8.68;;;;;;;12.15;100.00;99986.22;1702933;83;21976;-78
2022/10/24 06:10:46;;;;;;;14.43;9.45;;;;;;;12.18;100.00;99988.40;1720160;82;20983;-77
2022/10/24 06:13:15;;;;;;;11.12;8.73;;;;;;;12.22;100.00;99990.08;1711352;83;20991;-78
2022/10/24 06:15:42;;;;;;;10.00;7.92;;;;;;;12.24;100.00;99994.14;1722322;83;21528;-77
2022/10/24 06:18:09;;;;;;;13.75;8.98;;;;;;;12.26;100.00;99995.77;1716451;83;21014;-76
2022/10/24 06:20:37;;;;;;;14.23;11.12;;;;;;;12.26;100.00;99995.24;1722137;82;21151;-76
2022/10/24 06:23:03;;;;;;;13.80;9.45;;;;;;;12.28;100.00;99993.66;1703232;83;21008;-77
2022/10/24 06:25:31;;;;;;;15.80;9.55;;;;;;;12.28;100.00;99997.14;1722139;83;20890;-77
2022/10/24 06:27:58;;;;;;;17.10;11.73;;;;;;;12.28;100.00;99998.48;1722235;82;21041;-75
2022/10/24 06:30:25;;;;;;;14.83;10.78;;;;;;;12.29;100.00;99996.07;1707575;82;20956;-73
2022/10/24 06:32:52;;;;;;;12.43;10.88;;;;;;;12.33;100.00;99998.54;1717699;83;21101;-77
2022/10/24 06:35:18;;;;;;;14.20;9.60;;;;;;;12.40;100.00;99994.30;1716582;83;21634;-76
2022/10/24 06:37:46;;;;;;;10.38;8.65;;;;;;;12.45;100.00;99991.13;1719531;83;20952;-81
2022/10/24 06:40:13;;;;;;;13.28;9.05;;;;;;;12.50;100.00;99999.28;1721038;82;21564;-80
2022/10/24 06:42:41;;;;;;;11.83;10.15;;;;;;;12.53;100.00;99996.05;1690600;82;21009;-82
2022/10/24 06:45:08;;;;;;;13.90;9.35;;;;;;;12.58;100.00;99989.36;1726679;82;21751;-77
2022/10/24 06:47:35;;;;;;;14.18;9.78;;;;;;;12.65;100.00;99996.73;1719970;83;21043;-76
2022/10/24 06:50:03;;;;;;;10.35;9.35;;;;;;;12.73;100.00;99997.31;1717539;83;20976;-76
2022/10/24 06:52:30;;;;;;;21.68;17.20;;;;;;;12.80;100.00;99999.28;1722683;81;21049;-82
2022/10/24 06:54:56;;;;;;;15.53;10.95;;;;;;;12.87;100.00;100003.92;1722539;83;21087;-77
2022/10/24 06:57:22;;;;;;;11.75;9.68;;;;;;;12.92;100.00;100004.78;1722245;83;21139;-77
2022/10/24 06:59:49;;;;;;;12.37;9.23;;;;;;;12.93;100.00;100010.47;1721794;83;21049;-77
2022/10/24 07:02:17;;;;;;;9.58;8.15;;;;;;;12.93;100.00;100003.72;1728285;82;20973;-78
2022/10/24 07:04:43;;;;;;;8.58;7.12;;;;;;;12.94;100.00;100008.05;1722536;82;21029;-78
2022/10/24 07:07:15;;;;;;;15.38;8.60;;;;;;;12.93;100.00;100002.36;1722256;82;21021;-76
2022/10/24 07:09:41;;;;;;;10.60;8.45;;;;;;;12.96;100.00;100014.52;1722529;82;21144;-75
2022/10/24 07:12:08;;;;;;;10.55;7.90;;;;;;;13.00;100.00;100008.34;1731343;82;21034;-77
2022/10/24 07:14:36;;;;;;;13.83;7.95;;;;;;;13.00;100.00;100012.40;1686290;84;21085;-76
2022/10/24 07:17:03;;;;;;;12.50;9.25;;;;;;;12.96;100.00;100013.99;1676543;85;21114;-78
2022/10/24 07:19:31;;;;;;;11.10;7.67;;;;;;;12.91;100.00;100011.78;1669365;84;21089;-77
2022/10/24 07:21:59;;;;;;;11.28;8.53;;;;;;;12.89;100.00;100011.23;1671080;85;21048;-80
2022/10/24 07:24:25;;;;;;;12.23;8.28;;;;;;;12.90;100.00;100013.66;1670029;84;22425;-82
2022/10/24 07:26:53;;;;;;;8.05;6.72;;;;;;;12.96;100.00;100007.77;1674225;84;21069;-77
2022/10/24 07:29:21;;;;;;;15.28;7.75;;;;;;;12.99;100.00;100006.74;1670426;85;20954;-77
2022/10/24 07:31:48;;;;;;;8.43;7.50;;;;;;;13.00;100.00;100004.83;1672261;85;21135;-82
2022/10/24 07:34:18;;;;;;;9.53;8.23;;;;;;;12.99;100.00;100001.88;1659009;85;21163;-76
2022/10/24 07:36:45;;;;;;;10.18;8.33;;;;;;;12.98;100.00;99999.70;1683099;84;21117;-74
2022/10/24 07:39:12;;;;;;;13.20;11.80;;;;;;;13.01;100.00;100005.11;1683346;85;21013;-75
2022/10/24 07:41:42;;;;;;;10.95;8.30;;;;;;;13.04;100.00;100003.27;1675037;85;21096;-78
2022/10/24 07:44:09;;;;;;;13.05;8.00;;;;;;;13.06;100.00;100005.97;1670535;85;21612;-76
2022/10/24 07:46:37;;;;;;;10.80;8.28;;;;;;;13.15;100.00;100016.32;1675344;84;21060;-77
2022/10/24 07:49:03;;;;;;;8.45;7.15;;;;;;;13.18;100.00;100009.89;1669966;85;21076;-76
2022/10/24 07:51:33;;;;;;;8.95;8.00;;;;;;;13.23;100.00;100011.81;1650234;85;21048;-75
2022/10/24 07:54:01;;;;;;;10.23;8.20;;;;;;;13.30;100.00;100013.73;1669963;85;21073;-80
2022/10/24 07:56:28;;;;;;;9.15;7.65;;;;;;;13.34;100.00;100011.61;1670349;84;21684;-75
2022/10/24 07:58:56;;;;;;;15.98;9.23;;;;;;;13.36;99.48;100015.41;1681269;84;21239;-74
2022/10/24 08:01:24;;;;;;;13.28;8.10;;;;;;;13.37;99.26;100010.28;1656598;85;21087;-74
2022/10/24 08:03:50;;;;;;;11.78;7.70;;;;;;;13.43;99.25;100013.28;1678062;85;21062;-80
2022/10/24 08:06:20;;;;;;;9.58;6.85;;;;;;;13.45;98.77;100017.90;1670095;84;21067;-75
2022/10/24 08:08:48;;;;;;;11.12;7.12;;;;;;;13.43;97.89;100011.39;1666155;84;21058;-76
2022/10/24 08:11:21;;;;;;;8.20;6.78;;;;;;;13.42;97.60;100017.08;1643233;86;21764;-77
2022/10/24 08:13:50;;;;;;;7.80;6.97;;;;;;;13.44;97.35;100018.43;1647589;85;21025;-74
2022/10/24 08:16:17;;;;;;;8.48;6.15;;;;;;;13.46;97.14;100014.13;1665349;84;21005;-74
2022/10/24 08:18:43;;;;;;;9.63;6.17;;;;;;;13.52;97.02;100017.93;1667388;86;21034;-75
2022/10/24 08:21:12;;;;;;;12.70;7.08;;;;;;;13.54;96.64;100021.20;1670969;84;21042;-79
2022/10/24 08:23:43;;;;;;;11.83;7.60;;;;;;;13.53;96.54;100016.05;1670834;84;21840;-80
2022/10/24 08:26:13;;;;;;;11.25;7.78;;;;;;;13.59;96.72;100017.71;1667787;85;20996;-77
2022/10/24 08:28:41;;;;;;;9.98;8.05;;;;;;;13.70;96.54;100022.11;1667607;86;21019;-77
2022/10/24 08:31:10;;;;;;;9.75;7.20;;;;;;;13.78;95.79;100022.14;1671492;84;21007;-78
2022/10/24 08:33:37;;;;;;;13.58;11.53;;;;;;;13.86;95.59;100013.55;1684393;85;21118;-78
2022/10/24 08:36:15;;;;;;;18.12;12.88;;;;;;;13.92;95.07;100008.41;1680271;85;21377;-78
2022/10/24 08:38:44;;;;;;;9.63;8.63;;;;;;;13.93;94.47;100011.41;1667589;85;20974;-78
2022/10/24 08:41:21;;;;;;;7.05;6.35;;;;;;;13.90;94.39;100011.41;1673730;83;21094;-77
2022/10/24 08:43:48;;;;;;;9.20;7.58;;;;;;;13.94;94.20;100016.55;1664763;85;21559;-80
2022/10/24 08:46:33;;;;;;;9.50;6.65;;;;;;;13.97;94.21;100013.84;1666261;85;21023;-77
2022/10/24 08:49:11;;;;;;;13.55;6.35;;;;;;;13.98;93.58;100013.59;1663131;86;21366;-82
2022/10/24 08:51:52;;;;;;;17.05;6.87;;;;;;;14.00;93.00;100015.23;1671402;84;21039;-74
2022/10/24 08:54:28;;;;;;;10.28;6.50;;;;;;;13.97;92.71;100012.50;1671223;84;21059;-77
2022/10/24 08:57:00;;;;;;;7.45;6.20;;;;;;;13.97;92.62;100015.20;1671061;84;21070;-79
2022/10/24 08:59:29;;;;;;;16.55;6.45;;;;;;;13.97;92.47;100017.91;1673860;84;21049;-79
2022/10/24 09:02:03;;;;;;;8.33;6.83;;;;;;;13.96;92.41;100005.45;1648853;85;21138;-73
2022/10/24 09:04:56;;;;;;;8.38;6.60;;;;;;;13.97;92.33;100003.84;1667663;84;20980;-73
2022/10/24 09:07:24;;;;;;;7.30;6.58;;;;;;;13.96;92.11;100006.80;1673905;84;21064;-76
2022/10/24 09:10:15;;;;;;;9.48;6.53;;;;;;;13.90;92.06;100010.05;1668675;85;21084;-79
2022/10/24 09:12:43;;;;;;;12.68;9.95;;;;;;;13.84;92.20;100000.81;1669333;85;21139;-76
2022/10/24 09:15:17;;;;;;;12.30;7.70;;;;;;;13.83;92.69;100009.47;1677837;84;21330;-76
2022/10/24 09:17:44;;;;;;;9.03;7.50;;;;;;;13.88;93.11;100004.08;1682835;84;21684;-77
2022/10/24 13:45:58;;;;;;;22.52;18.27;;;;;;;13.69;100.00;99954.25;1793741;78;31916;-81
2022/10/24 13:48:28;;;;;;;21.48;18.57;;;;;;;13.71;100.00;99955.34;1760400;80;21526;-85
2022/10/24 13:51:17;;;;;;;23.67;18.98;;;;;;;13.75;100.00;99957.80;1741812;80;21300;-83
2022/10/24 13:54:17;;;;;;;23.27;18.35;;;;;;;13.83;100.00;99955.92;1746173;80;21005;-74
2022/10/24 13:56:52;;;;;;;24.67;18.48;;;;;;;13.93;100.00;99951.38;1714058;83;20984;-76
2022/10/24 13:59:33;;;;;;;29.40;17.05;;;;;;;14.04;100.00;99954.12;1713067;83;21006;-80
2022/10/24 14:02:16;;;;;;;31.30;19.87;;;;;;;14.17;100.00;99962.53;1714940;82;21030;-79
2022/10/24 14:04:49;;;;;;;26.85;18.12;;;;;;;14.23;100.00;99960.12;1713237;82;21252;-78
2022/10/24 14:07:31;;;;;;;25.05;18.17;;;;;;;14.30;100.00;99958.49;1739447;81;20961;-78
2022/10/24 14:10:10;;;;;;;25.82;18.57;;;;;;;14.31;100.00;99960.94;1763025;80;21273;-75
2022/10/24 14:12:39;;;;;;;22.02;18.52;;;;;;;14.34;100.00;99964.45;1742936;80;21522;-74
2022/10/24 14:15:20;;;;;;;34.00;22.75;;;;;;;14.46;100.00;99957.48;1728640;81;21113;-78
2022/10/24 14:18:14;;;;;;;30.15;19.67;;;;;;;14.52;99.37;99959.12;1773634;80;21302;-78
2022/10/24 14:20:53;;;;;;;35.92;26.20;;;;;;;14.61;98.86;99960.21;1759658;80;21082;-82
2022/10/24 14:23:42;;;;;;;29.55;20.25;;;;;;;14.64;98.19;99958.31;1755073;80;20994;-84
2022/10/24 14:26:25;;;;;;;29.55;21.77;;;;;;;14.74;97.86;99963.73;1741191;81;21105;-79
2022/10/24 14:28:57;;;;;;;29.95;21.82;;;;;;;14.74;96.86;99973.75;1720076;81;21094;-82
2022/10/24 14:31:36;;;;;;;34.75;25.70;;;;;;;14.71;96.35;99967.53;1741481;81;21238;-82
2022/10/24 14:34:05;;;;;;;36.25;25.40;;;;;;;14.68;96.08;99974.28;1728422;81;22312;-73
2022/10/24 14:36:35;;;;;;;28.62;23.50;;;;;;;14.69;96.01;99982.68;1758269;80;21424;-72
2022/10/24 14:39:01;;;;;;;26.87;20.12;;;;;;;14.74;96.06;99973.75;1760093;80;21024;-73
2022/10/24 14:41:35;;;;;;;20.60;17.48;;;;;;;14.87;95.77;99973.77;1737985;81;20988;-73
2022/10/24 14:44:04;;;;;;;26.80;19.98;;;;;;;14.97;94.94;99975.09;1765911;80;21370;-74
2022/10/24 14:46:39;;;;;;;30.70;23.05;;;;;;;15.02;93.72;99976.45;1699833;84;21035;-74
2022/10/24 14:49:32;;;;;;;47.55;27.87;;;;;;;14.96;93.01;99972.95;1689780;83;20996;-68
2022/10/24 14:52:35;;;;;;;34.55;23.07;;;;;;;14.94;92.60;99974.30;1714497;82;21048;-75
2022/10/24 14:55:16;;;;;;;36.17;25.45;;;;;;;14.92;92.47;99962.37;1694353;83;20988;-71
2022/10/24 14:57:50;;;;;;;40.52;30.08;;;;;;;14.99;92.31;99945.31;1713118;82;21027;-81
2022/10/24 15:00:22;;;;;;;47.65;32.93;;;;;;;15.05;92.06;99942.06;1716124;83;21472;-74
2022/10/24 15:02:52;;;;;;;61.55;37.95;;;;;;;15.03;91.46;99939.61;1720230;83;21074;-68
2022/10/24 15:05:25;;;;;;;79.47;40.40;;;;;;;14.92;91.70;99939.34;1714963;83;21088;-75
2022/10/24 15:08:03;;;;;;;47.27;25.32;;;;;;;14.83;91.89;99940.98;1713745;83;21057;-76
2022/10/24 15:10:40;;;;;;;40.63;23.12;;;;;;;14.76;92.13;99952.10;1718392;83;21247;-84
2022/10/24 15:13:20;;;;;;;34.18;21.65;;;;;;;14.66;92.08;99971.58;1737674;82;20944;-82
2022/10/24 15:15:55;;;;;;;18.77;15.93;;;;;;;14.60;92.16;99988.36;1719317;83;21626;-79
2022/10/24 15:18:38;;;;;;;23.40;14.78;;;;;;;14.59;91.79;99989.97;1720500;83;21610;-80
2022/10/24 15:21:22;;;;;;;20.80;14.78;;;;;;;14.58;91.38;99991.08;1718061;82;20979;-82
2022/10/24 15:23:58;;;;;;;22.60;17.10;;;;;;;14.55;90.85;99997.83;1726965;82;20916;-81
2022/10/24 15:26:43;;;;;;;21.77;16.73;;;;;;;14.50;90.48;99989.69;1700100;81;20964;-84
2022/10/24 15:29:25;;;;;;;17.87;14.58;;;;;;;14.44;90.36;100000.23;1707099;84;20965;-78
2022/10/24 15:32:03;;;;;;;22.42;15.40;;;;;;;14.39;90.31;100011.04;1706307;82;21043;-83
2022/10/24 15:34:41;;;;;;;23.07;16.25;;;;;;;14.36;90.41;100023.76;1688412;83;21604;-83
2022/10/24 15:40:23;;;;;;;30.85;17.82;;;;;;;14.39;90.53;100014.56;1728290;82;21124;-84
2022/10/24 15:43:03;;;;;;;22.27;15.32;;;;;;;14.38;90.51;100006.20;1736841;82;21552;-83
2022/10/24 15:45:40;;;;;;;21.95;16.27;;;;;;;14.41;90.42;99998.06;1731707;81;21052;-85
2022/10/24 15:48:29;;;;;;;22.37;15.03;;;;;;;14.41;90.19;99992.66;1696864;83;21018;-81
2022/10/24 15:51:05;;;;;;;22.37;16.45;;;;;;;14.35;90.01;99990.44;1658908;84;21049;-80
2022/10/24 15:53:42;;;;;;;23.95;16.57;;;;;;;14.33;90.09;99999.92;1696912;84;21517;-81
2022/10/24 15:56:23;;;;;;;27.37;17.70;;;;;;;14.33;90.11;99993.97;1694958;83;21101;-80
2022/10/24 15:59:04;;;;;;;22.62;17.35;;;;;;;14.35;90.13;99996.39;1701530;82;21059;-79
2022/10/24 16:01:46;;;;;;;28.15;19.77;;;;;;;14.39;90.12;99991.56;1682693;83;21532;-81
2022/10/24 16:04:22;;;;;;;25.60;18.57;;;;;;;14.38;89.88;99989.95;1729769;81;21209;-80
2022/10/24 16:06:54;;;;;;;36.30;30.55;;;;;;;14.39;89.86;99996.97;1693191;82;21114;-80